Time;durP1;ratioP1;P1;durP2;ratioP2;P2;SDS_P1;SDS_P2;PMS_P1;PMS_P2;Temp;Humidity;BMP_temperature;BMP_pressure;BME280_temperature;BME280_humidity;BME280_pressure;Samples;Min_cycle;Max_cycle;Signal;HPM_P1;HPM_P2
2022/01/05 00:00:54;;;;;;;29.77;22.63;;;14.00;99.90;;;;;;5167655;28;20113;-29
2022/01/05 00:03:25;;;;;;;31.77;24.27;;;14.00;99.90;;;;;;5166134;28;20050;-28
2022/01/05 00:05:56;;;;;;;36.30;24.60;;;14.00;99.90;;;;;;5167632;28;20369;-29
2022/01/05 00:08:28;;;;;;;33.27;23.80;;;14.00;99.90;;;;;;5168128;28;20105;-29
2022/01/05 00:10:59;;;;;;;30.57;23.03;;;14.00;99.90;;;;;;5166390;28;20064;-30
2022/01/05 00:13:30;;;;;;;29.17;23.10;;;14.00;99.90;;;;;;5167443;28;20402;-28
2022/01/05 00:16:01;;;;;;;31.43;23.03;;;14.00;99.90;;;;;;5167043;28;20125;-30
2022/01/05 00:18:32;;;;;;;32.33;22.53;;;14.00;99.90;;;;;;5167370;28;20121;-28
2022/01/05 00:21:04;;;;;;;29.97;20.93;;;14.00;99.90;;;;;;5166123;28;20046;-28
2022/01/05 00:23:35;;;;;;;31.37;22.47;;;14.00;99.90;;;;;;5167414;28;20043;-28
2022/01/05 00:26:06;;;;;;;29.73;20.90;;;14.00;99.90;;;;;;5166055;28;20042;-29
2022/01/05 00:28:37;;;;;;;34.43;24.97;;;14.10;99.90;;;;;;5167036;28;20046;-28
2022/01/05 00:31:08;;;;;;;32.13;23.10;;;14.10;99.90;;;;;;5167146;28;20503;-28
2022/01/05 00:33:39;;;;;;;30.87;20.27;;;14.10;99.90;;;;;;5166825;28;20050;-28
2022/01/05 00:36:10;;;;;;;34.97;24.37;;;14.10;99.90;;;;;;5167274;28;20053;-29
2022/01/05 00:38:41;;;;;;;31.07;21.57;;;14.10;99.90;;;;;;5166931;28;20042;-30
2022/01/05 00:41:12;;;;;;;32.70;21.17;;;14.10;99.90;;;;;;5167480;28;20048;-28
2022/01/05 00:43:43;;;;;;;27.93;20.43;;;14.10;99.90;;;;;;5166648;28;20046;-30
2022/01/05 00:46:14;;;;;;;25.80;18.23;;;14.10;99.90;;;;;;5166673;28;20046;-28
2022/01/05 00:48:45;;;;;;;24.60;18.97;;;14.10;99.90;;;;;;5166806;28;20053;-30
2022/01/05 00:51:16;;;;;;;31.40;19.67;;;14.10;99.90;;;;;;5165242;28;20042;-29
2022/01/05 00:53:47;;;;;;;35.53;22.37;;;14.10;99.90;;;;;;5166111;28;20137;-28
2022/01/05 00:56:18;;;;;;;25.07;18.47;;;14.10;99.90;;;;;;5165901;28;20092;-28
2022/01/05 00:58:49;;;;;;;22.77;16.50;;;14.10;99.90;;;;;;5166848;28;20121;-28
2022/01/05 01:01:20;;;;;;;21.27;15.60;;;14.10;99.90;;;;;;5166471;28;20042;-30
2022/01/05 01:03:54;;;;;;;25.23;17.37;;;14.10;99.90;;;;;;5166530;28;20547;-28
2022/01/05 01:06:25;;;;;;;47.60;32.70;;;14.10;99.90;;;;;;5166746;28;20057;-29
2022/01/05 01:08:56;;;;;;;58.43;49.53;;;14.10;99.90;;;;;;5166761;28;20468;-28
2022/01/05 01:11:27;;;;;;;65.63;37.13;;;14.10;99.90;;;;;;5179763;28;20511;-29
2022/01/05 01:13:57;;;;;;;23.53;16.40;;;14.10;99.90;;;;;;5169422;28;20070;-29
2022/01/05 01:16:29;;;;;;;16.87;13.77;;;14.00;99.90;;;;;;5186874;28;20555;-28
2022/01/05 01:18:59;;;;;;;13.97;10.50;;;13.90;99.90;;;;;;5169465;28;20128;-30
2022/01/05 01:21:30;;;;;;;10.40;7.20;;;13.90;99.90;;;;;;5169332;28;20046;-30
2022/01/05 01:24:01;;;;;;;12.23;10.70;;;13.90;99.90;;;;;;5169261;28;20103;-28
2022/01/05 01:26:34;;;;;;;14.15;12.75;;;13.80;99.90;;;;;;5186801;28;20479;-28
2022/01/05 01:29:04;;;;;;;8.37;5.57;;;13.90;99.90;;;;;;5186682;28;20133;-30
2022/01/05 01:31:36;;;;;;;12.27;10.03;;;13.80;99.90;;;;;;5186682;28;20164;-28
2022/01/05 01:34:06;;;;;;;8.23;5.60;;;13.90;99.90;;;;;;5186650;28;20126;-29
2022/01/05 01:36:37;;;;;;;6.60;5.53;;;13.90;99.90;;;;;;5169321;28;20125;-30
2022/01/05 01:39:08;;;;;;;7.57;6.87;;;13.90;99.90;;;;;;5186445;28;20284;-28
2022/01/05 01:41:39;;;;;;;8.90;7.60;;;13.90;99.90;;;;;;5186575;28;20042;-28
2022/01/05 01:44:10;;;;;;;6.87;5.17;;;13.90;99.90;;;;;;5186717;28;20046;-30
2022/01/05 01:46:41;;;;;;;9.10;6.07;;;13.90;99.80;;;;;;5186611;28;20168;-28
2022/01/05 01:49:15;;;;;;;7.33;5.53;;;13.90;99.70;;;;;;5186486;28;20534;-30
2022/01/05 01:51:46;;;;;;;7.10;6.00;;;13.90;99.70;;;;;;5169395;28;20549;-30
2022/01/05 01:54:17;;;;;;;5.00;3.40;;;14.00;99.50;;;;;;5169083;28;20046;-28
2022/01/05 01:56:49;;;;;;;6.50;4.40;;;14.00;99.40;;;;;;5169001;28;20070;-28
2022/01/05 01:59:20;;;;;;;5.13;3.27;;;14.00;99.20;;;;;;5169465;28;20080;-28
2022/01/05 02:01:51;;;;;;;4.40;2.90;;;14.00;99.10;;;;;;5153488;28;20042;-30
2022/01/05 02:04:22;;;;;;;7.60;5.20;;;14.00;99.00;;;;;;5171480;28;20042;-29
2022/01/05 02:06:53;;;;;;;9.40;5.93;;;14.00;98.80;;;;;;5156530;28;20132;-28
2022/01/05 02:09:24;;;;;;;8.77;4.43;;;14.00;98.80;;;;;;5172690;28;20042;-29
2022/01/05 02:11:55;;;;;;;8.60;5.23;;;14.00;98.60;;;;;;5156332;28;20077;-29
2022/01/05 02:14:26;;;;;;;5.60;3.80;;;14.00;98.60;;;;;;5189895;28;20050;-30
2022/01/05 02:17:02;;;;;;;7.47;4.73;;;14.00;98.50;;;;;;5189934;28;20116;-30
2022/01/05 02:19:33;;;;;;;6.67;4.33;;;14.00;98.40;;;;;;5189809;28;20096;-28
2022/01/05 02:22:04;;;;;;;6.27;3.97;;;14.00;98.30;;;;;;5172471;28;20088;-29
2022/01/05 02:24:35;;;;;;;7.27;5.40;;;14.00;98.20;;;;;;5189692;28;20074;-28
2022/01/05 02:27:06;;;;;;;7.33;5.33;;;14.00;98.10;;;;;;5189596;28;20046;-28
2022/01/05 02:29:37;;;;;;;10.00;6.00;;;14.00;98.00;;;;;;5189645;28;20537;-28
2022/01/05 02:32:08;;;;;;;7.43;5.30;;;14.00;97.90;;;;;;5189767;28;20046;-28
2022/01/05 02:34:39;;;;;;;7.67;4.87;;;13.90;97.80;;;;;;5189561;28;20042;-29
2022/01/05 02:37:10;;;;;;;6.27;3.87;;;14.00;97.70;;;;;;5189428;28;20081;-30
2022/01/05 02:39:41;;;;;;;5.13;3.03;;;13.90;97.70;;;;;;5189404;28;20506;-28
2022/01/05 02:42:23;;;;;;;4.70;2.53;;;13.90;97.60;;;;;;5188989;28;20046;-30
2022/01/05 02:44:54;;;;;;;4.33;2.57;;;13.90;97.60;;;;;;5157342;28;20522;-30
2022/01/05 02:47:25;;;;;;;3.93;2.50;;;13.90;97.60;;;;;;5189391;28;20396;-29
2022/01/05 02:49:57;;;;;;;4.20;2.27;;;13.90;97.50;;;;;;5171896;28;20041;-30
2022/01/05 02:52:28;;;;;;;4.93;2.23;;;13.90;97.40;;;;;;5171972;28;20053;-29
2022/01/05 02:55:00;;;;;;;3.83;1.90;;;14.00;97.30;;;;;;5189199;28;20487;-30
2022/01/05 02:57:31;;;;;;;4.30;2.83;;;14.00;97.30;;;;;;5189318;28;20121;-28
2022/01/05 03:00:04;;;;;;;4.23;1.90;;;14.00;97.20;;;;;;5189119;28;20133;-30
2022/01/05 03:02:35;;;;;;;3.17;2.00;;;14.00;97.10;;;;;;5188921;28;20038;-30
2022/01/05 03:05:07;;;;;;;4.37;2.00;;;14.00;97.00;;;;;;5171572;28;20392;-30
2022/01/05 03:07:39;;;;;;;3.43;2.57;;;14.00;97.00;;;;;;5188886;28;20511;-29
2022/01/05 03:10:11;;;;;;;7.00;2.93;;;14.00;96.90;;;;;;5188619;28;20056;-28
2022/01/05 03:12:43;;;;;;;3.90;2.33;;;14.00;96.80;;;;;;5171301;28;20049;-30
2022/01/05 03:15:14;;;;;;;4.70;2.27;;;14.00;96.80;;;;;;5187703;28;20479;-29
2022/01/05 03:17:45;;;;;;;6.43;3.40;;;14.00;96.70;;;;;;5188737;28;20490;-28
2022/01/05 03:20:20;;;;;;;4.97;2.70;;;14.00;96.70;;;;;;5188557;28;20128;-29
2022/01/05 03:22:51;;;;;;;16.43;8.20;;;14.00;96.60;;;;;;5188420;28;20038;-29
2022/01/05 03:25:22;;;;;;;17.83;9.57;;;14.00;96.50;;;;;;5188530;28;20365;-28
2022/01/05 03:27:53;;;;;;;17.40;9.50;;;14.00;96.40;;;;;;5188801;28;20434;-28
2022/01/05 03:30:26;;;;;;;15.80;8.87;;;14.00;96.40;;;;;;5188410;28;20100;-30
2022/01/05 03:35:34;;;;;;;7.17;4.23;;;14.00;96.30;;;;;;5188298;28;20045;-30
2022/01/05 03:38:05;;;;;;;;;;;14.00;96.20;;;;;;5188755;28;20460;-30
2022/01/05 03:40:36;;;;;;;6.40;3.80;;;14.00;96.10;;;;;;5188224;28;20012;-28
2022/01/05 03:43:08;;;;;;;6.77;4.57;;;14.00;96.10;;;;;;5187895;28;20053;-28
2022/01/05 03:45:39;;;;;;;10.37;5.70;;;14.00;96.10;;;;;;5188396;28;20053;-29
2022/01/05 03:48:11;;;;;;;9.30;5.43;;;14.00;96.00;;;;;;5121441;28;20087;-28
2022/01/05 03:50:41;;;;;;;7.83;5.33;;;14.00;96.00;;;;;;5154587;28;20041;-28
2022/01/05 03:53:13;;;;;;;7.83;5.20;;;14.00;95.90;;;;;;5170912;28;20454;-28
2022/01/05 03:55:44;;;;;;;10.17;5.63;;;14.00;95.90;;;;;;5188240;28;20066;-29
2022/01/05 03:58:16;;;;;;;12.10;7.77;;;14.00;95.80;;;;;;5187882;28;20121;-29
2022/01/05 04:00:49;;;;;;;11.23;7.20;;;14.00;95.70;;;;;;5170450;28;20089;-28
2022/01/05 04:03:20;;;;;;;14.57;9.90;;;14.00;95.70;;;;;;5170554;28;20046;-28
2022/01/05 04:05:51;;;;;;;17.93;10.23;;;14.00;95.60;;;;;;5187485;28;20065;-28
2022/01/05 04:08:22;;;;;;;20.60;10.63;;;14.00;95.50;;;;;;5165295;28;20470;-29
2022/01/05 04:10:53;;;;;;;16.40;9.07;;;14.00;95.50;;;;;;5165120;28;20146;-28
2022/01/05 04:13:24;;;;;;;15.40;8.53;;;14.00;95.50;;;;;;5165091;28;20480;-28
2022/01/05 04:15:55;;;;;;;16.47;9.07;;;14.10;95.60;;;;;;5165445;28;20046;-30
2022/01/05 04:18:26;;;;;;;12.13;7.43;;;14.00;95.60;;;;;;5165106;28;20069;-29
2022/01/05 04:20:57;;;;;;;12.67;6.50;;;14.10;95.60;;;;;;5164669;28;20058;-29
2022/01/05 04:23:28;;;;;;;11.93;7.20;;;14.00;95.60;;;;;;5165125;28;20064;-30
2022/01/05 04:25:59;;;;;;;10.53;6.80;;;14.00;95.60;;;;;;5164015;28;20404;-28
2022/01/05 04:28:30;;;;;;;10.20;5.93;;;14.00;95.50;;;;;;5164790;28;20054;-30
2022/01/05 04:31:01;;;;;;;11.20;6.63;;;14.00;95.40;;;;;;5164784;28;20052;-28
2022/01/05 04:33:32;;;;;;;11.40;7.37;;;14.00;95.50;;;;;;5148600;28;20084;-29
2022/01/05 04:36:03;;;;;;;8.93;5.97;;;14.10;95.50;;;;;;5148558;28;20069;-32
2022/01/05 04:38:34;;;;;;;8.80;5.83;;;14.10;95.40;;;;;;5169333;28;20057;-29
2022/01/05 04:41:05;;;;;;;8.03;5.63;;;14.30;95.50;;;;;;5169230;28;20049;-27
2022/01/05 04:43:36;;;;;;;9.43;6.90;;;14.50;95.40;;;;;;5152771;28;20518;-27
2022/01/05 04:46:07;;;;;;;22.73;14.90;;;13.50;95.30;;;;;;5169205;28;20054;-26
2022/01/05 04:48:38;;;;;;;33.40;21.23;;;12.30;97.20;;;;;;5186957;28;20050;-29
2022/01/05 04:51:09;;;;;;;;;;;11.60;98.10;;;;;;5170132;28;20526;-29
2022/01/05 04:53:40;;;;;;;41.47;26.60;;;11.30;98.90;;;;;;5185405;28;19952;-27
2022/01/05 04:56:11;;;;;;;20.83;13.40;;;11.10;99.40;;;;;;5187261;28;20047;-27
2022/01/05 04:58:42;;;;;;;;;;;11.00;99.60;;;;;;5187109;28;20439;-27
2022/01/05 05:01:14;;;;;;;10.03;6.77;;;10.90;99.80;;;;;;5186444;28;19921;-29
2022/01/05 05:03:45;;;;;;;8.33;5.13;;;10.80;99.90;;;;;;5186087;28;20471;-27
2022/01/05 05:06:16;;;;;;;9.90;6.00;;;10.70;99.90;;;;;;5186729;28;20088;-27
2022/01/05 05:08:47;;;;;;;13.23;8.70;;;10.60;99.90;;;;;;5169471;28;20077;-29
2022/01/05 05:11:18;;;;;;;12.63;7.90;;;10.50;99.90;;;;;;5187012;28;20076;-28
2022/01/05 05:13:49;;;;;;;19.47;11.90;;;10.50;99.90;;;;;;5169256;28;20406;-27
2022/01/05 05:16:20;;;;;;;38.90;22.90;;;10.50;99.90;;;;;;5169466;28;20133;-27
2022/01/05 05:18:51;;;;;;;54.33;33.83;;;10.50;99.90;;;;;;5187362;28;20050;-29
2022/01/05 05:21:22;;;;;;;31.00;20.17;;;10.50;99.90;;;;;;5169399;28;20053;-29
2022/01/05 05:23:53;;;;;;;20.17;12.57;;;10.50;99.90;;;;;;5186567;28;20081;-28
2022/01/05 05:26:25;;;;;;;14.27;9.80;;;10.60;99.90;;;;;;5152911;28;20072;-27
2022/01/05 05:28:56;;;;;;;42.20;25.93;;;10.60;99.90;;;;;;5186875;28;20395;-27
2022/01/05 05:31:27;;;;;;;58.07;35.97;;;10.50;99.90;;;;;;5186710;28;20042;-26
2022/01/05 05:33:58;;;;;;;43.83;28.97;;;10.50;99.90;;;;;;5186631;28;20400;-29
2022/01/05 05:36:29;;;;;;;25.40;15.97;;;10.50;99.90;;;;;;5169514;28;20042;-28
2022/01/05 05:39:00;;;;;;;24.23;16.10;;;10.40;99.90;;;;;;5189358;28;20037;-27
2022/01/05 05:41:31;;;;;;;21.90;14.37;;;10.30;99.90;;;;;;5190310;28;20497;-27
2022/01/05 05:44:02;;;;;;;14.87;9.00;;;10.30;99.90;;;;;;5190005;28;20046;-29
2022/01/05 05:46:34;;;;;;;10.93;7.10;;;10.30;99.90;;;;;;5191020;28;20046;-28
2022/01/05 05:49:05;;;;;;;18.00;12.07;;;10.20;99.90;;;;;;5190648;28;20052;-27
2022/01/05 05:51:35;;;;;;;13.33;8.80;;;10.10;99.90;;;;;;5190422;28;20121;-27
2022/01/05 05:54:06;;;;;;;35.07;21.50;;;10.20;99.90;;;;;;5173363;28;20541;-29
2022/01/05 05:56:37;;;;;;;22.97;15.30;;;10.10;99.90;;;;;;5173488;28;20042;-29
2022/01/05 05:59:08;;;;;;;24.23;14.67;;;10.00;99.90;;;;;;5172839;28;20068;-29
2022/01/05 06:01:39;;;;;;;20.47;13.23;;;10.00;99.90;;;;;;5190131;28;20041;-29
2022/01/05 06:04:10;;;;;;;17.87;11.17;;;10.00;99.90;;;;;;5190455;28;20077;-27
2022/01/05 06:06:41;;;;;;;16.60;10.60;;;10.00;99.90;;;;;;5190057;28;20046;-28
2022/01/05 06:09:12;;;;;;;23.93;17.17;;;10.00;99.90;;;;;;5189936;28;20042;-28
2022/01/05 06:11:43;;;;;;;22.07;14.77;;;9.90;99.90;;;;;;5189517;28;20069;-28
2022/01/05 06:14:14;;;;;;;23.23;16.40;;;9.90;99.90;;;;;;5189844;28;20042;-28
2022/01/05 06:16:45;;;;;;;21.17;14.77;;;9.90;99.90;;;;;;5189886;28;20406;-27
2022/01/05 06:19:17;;;;;;;19.90;13.80;;;9.80;99.90;;;;;;5156722;28;20502;-27
2022/01/05 06:21:50;;;;;;;412.67;225.20;;;9.80;99.90;;;;;;5189834;28;20073;-28
2022/01/05 06:24:21;;;;;;;208.45;102.07;;;9.80;99.90;;;;;;5172746;28;20534;-28
2022/01/05 06:26:52;;;;;;;79.07;39.07;;;9.80;99.90;;;;;;5189555;28;20141;-27
2022/01/05 06:29:23;;;;;;;63.57;32.57;;;9.70;99.90;;;;;;5189862;28;20518;-27
2022/01/05 06:31:54;;;;;;;87.97;43.30;;;9.70;99.90;;;;;;5172165;28;20069;-29
2022/01/05 06:34:25;;;;;;;28.93;17.80;;;9.70;99.90;;;;;;5172196;28;20046;-27
2022/01/05 06:36:56;;;;;;;17.37;10.77;;;9.70;99.90;;;;;;5189498;28;20384;-29
2022/01/05 06:39:27;;;;;;;15.17;9.53;;;9.70;99.90;;;;;;5189489;28;20048;-28
2022/01/05 06:41:58;;;;;;;15.33;9.93;;;9.60;99.90;;;;;;5171814;28;20631;-29
2022/01/05 06:44:32;;;;;;;15.10;8.67;;;9.70;99.90;;;;;;5189040;28;20085;-31
2022/01/05 06:47:03;;;;;;;14.32;9.55;;;10.10;99.90;;;;;;5189307;28;20116;-29
2022/01/05 06:49:34;;;;;;;20.70;13.70;;;10.50;99.90;;;;;;5169907;28;24443;-30
2022/01/05 06:52:06;;;;;;;;;;;11.00;99.90;;;;;;5190030;28;20053;-29
2022/01/05 06:54:38;;;;;;;16.40;10.03;;;11.50;99.90;;;;;;5188912;28;19968;-31
2022/01/05 06:57:32;;;;;;;15.10;9.93;;;11.80;99.90;;;;;;5181414;28;20061;-29
2022/01/05 07:00:19;;;;;;;12.47;9.07;;;12.10;99.50;;;;;;5067258;29;20065;-29
2022/01/05 07:02:50;;;;;;;13.23;7.93;;;12.40;98.90;;;;;;5065026;29;20063;-29
2022/01/05 07:05:21;;;;;;;11.77;8.23;;;12.60;98.60;;;;;;5064894;29;20120;-29
2022/01/05 07:07:52;;;;;;;18.60;10.63;;;12.70;98.30;;;;;;5064862;29;20056;-28
2022/01/05 07:10:23;;;;;;;13.70;8.30;;;12.90;98.10;;;;;;5064535;29;20067;-29
2022/01/05 07:12:56;;;;;;;11.93;7.87;;;13.00;97.90;;;;;;5064712;29;20071;-29
2022/01/05 07:15:28;;;;;;;11.60;7.37;;;13.10;97.60;;;;;;5064979;29;20061;-28
2022/01/05 07:17:59;;;;;;;13.37;6.93;;;13.20;97.50;;;;;;5064813;29;20508;-28
2022/01/05 07:20:30;;;;;;;10.27;7.67;;;13.30;97.40;;;;;;5064828;29;20462;-29
2022/01/05 07:23:01;;;;;;;11.00;7.07;;;13.30;97.30;;;;;;5064321;29;20057;-29
2022/01/05 07:25:32;;;;;;;14.17;8.50;;;13.40;97.20;;;;;;5064642;29;20071;-30
2022/01/05 07:28:03;;;;;;;12.47;7.53;;;13.40;97.00;;;;;;5064584;29;20045;-28
2022/01/05 07:30:34;;;;;;;24.07;12.80;;;13.50;96.90;;;;;;5064496;29;20536;-30
2022/01/05 07:33:05;;;;;;;20.43;11.80;;;13.50;96.80;;;;;;5064451;29;20060;-30
2022/01/05 07:35:36;;;;;;;15.90;8.30;;;13.60;96.70;;;;;;5072503;29;20116;-29
2022/01/05 07:38:08;;;;;;;12.40;7.27;;;13.60;96.60;;;;;;5105969;29;20525;-30
2022/01/05 07:40:39;;;;;;;11.07;6.83;;;13.60;96.60;;;;;;5101217;29;20086;-29
2022/01/05 07:43:10;;;;;;;11.97;7.20;;;13.70;96.50;;;;;;5103355;29;20150;-29
2022/01/05 07:45:41;;;;;;;10.60;7.10;;;13.70;96.40;;;;;;5105225;29;20131;-28
2022/01/05 07:48:12;;;;;;;10.40;6.90;;;13.80;96.30;;;;;;5105123;29;20051;-28
2022/01/05 07:50:43;;;;;;;11.27;6.67;;;13.90;96.30;;;;;;5140364;28;20095;-29
2022/01/05 07:53:14;;;;;;;10.93;6.10;;;13.90;96.30;;;;;;5150281;28;20130;-30
2022/01/05 07:55:50;;;;;;;;;;;13.90;96.20;;;;;;5168081;28;20125;-28
2022/01/05 07:58:23;;;;;;;11.53;6.57;;;13.90;96.10;;;;;;5150182;28;19921;-29
2022/01/05 08:01:00;;;;;;;18.40;10.33;;;14.00;96.20;;;;;;5133691;28;20046;-29
2022/01/05 08:03:54;;;;;;;21.13;12.97;;;14.00;96.10;;;;;;5150268;28;20125;-28
2022/01/05 08:07:14;;;;;;;21.87;13.73;;;14.00;96.20;;;;;;5150463;28;20042;-28
2022/01/05 08:09:55;;;;;;;10.10;6.60;;;14.00;96.20;;;;;;5104943;29;20048;-29
2022/01/05 08:12:32;;;;;;;13.97;8.20;;;14.00;96.30;;;;;;5104922;29;20048;-29
2022/01/05 08:15:05;;;;;;;12.90;8.67;;;14.00;96.30;;;;;;5104686;29;20052;-28
2022/01/05 08:17:36;;;;;;;11.67;7.90;;;14.00;96.40;;;;;;5104691;29;20550;-28
2022/01/05 08:20:11;;;;;;;13.80;8.67;;;14.10;96.50;;;;;;5088063;29;20107;-29
2022/01/05 08:22:47;;;;;;;16.17;12.27;;;14.00;96.50;;;;;;5104779;29;20518;-28
2022/01/05 08:25:20;;;;;;;16.73;13.07;;;14.00;96.60;;;;;;5089016;29;20135;-28
2022/01/05 08:27:55;;;;;;;19.55;14.15;;;14.10;96.60;;;;;;5104054;29;20109;-29
2022/01/05 08:30:44;;;;;;;15.40;11.60;;;14.00;96.70;;;;;;5121072;28;20039;-28
2022/01/05 08:33:18;;;;;;;15.40;9.63;;;14.00;96.70;;;;;;5122336;28;20066;-28
2022/01/05 08:35:49;;;;;;;14.90;10.67;;;14.00;96.80;;;;;;5120983;28;20090;-28
2022/01/05 08:38:24;;;;;;;14.60;10.47;;;14.10;96.80;;;;;;5092888;29;20062;-28
2022/01/05 08:40:55;;;;;;;22.00;18.13;;;14.00;96.80;;;;;;5121461;28;20051;-28
2022/01/05 08:43:29;;;;;;;19.10;14.73;;;14.00;96.90;;;;;;5106018;29;20058;-28
2022/01/05 08:46:00;;;;;;;63.40;44.83;;;14.00;96.90;;;;;;5136594;28;20065;-29
2022/01/05 08:48:31;;;;;;;42.23;30.10;;;14.00;96.90;;;;;;5191850;28;20074;-28
2022/01/05 08:51:02;;;;;;;23.67;17.53;;;14.00;97.00;;;;;;5184515;28;20045;-30
2022/01/05 08:53:33;;;;;;;18.47;12.33;;;14.00;97.00;;;;;;5184609;28;20046;-30
2022/01/05 08:56:04;;;;;;;16.70;10.73;;;14.00;97.10;;;;;;5184526;28;20050;-29
2022/01/05 08:58:35;;;;;;;16.13;10.30;;;14.00;97.10;;;;;;5184365;28;20057;-30
2022/01/05 09:01:10;;;;;;;17.27;11.80;;;14.00;97.10;;;;;;5184337;28;20467;-30
2022/01/05 09:03:41;;;;;;;30.07;21.00;;;14.00;97.20;;;;;;5184646;28;20436;-29
2022/01/05 09:06:12;;;;;;;26.27;16.00;;;14.00;97.20;;;;;;5167026;28;20407;-28
2022/01/05 09:08:43;;;;;;;13.23;9.97;;;14.00;97.20;;;;;;5184568;28;20100;-28
2022/01/05 09:11:15;;;;;;;17.10;11.50;;;13.90;97.10;;;;;;5184073;28;20058;-30
2022/01/05 09:13:47;;;;;;;16.10;12.37;;;13.90;97.10;;;;;;5186602;28;20096;-28
2022/01/05 09:16:22;;;;;;;12.02;8.48;;;13.90;97.20;;;;;;5171195;28;20046;-29
2022/01/05 09:18:54;;;;;;;15.50;9.97;;;13.80;97.00;;;;;;5151264;28;20050;-28
2022/01/05 09:21:25;;;;;;;22.67;15.63;;;13.80;97.00;;;;;;5149545;28;20056;-28
2022/01/05 09:24:08;;;;;;;17.83;11.87;;;13.80;97.10;;;;;;5188083;28;20053;-29
2022/01/05 09:26:45;;;;;;;13.03;9.10;;;13.90;97.00;;;;;;5171492;28;20069;-29
2022/01/05 09:29:19;;;;;;;12.90;9.17;;;13.90;96.80;;;;;;5171749;28;20089;-29
2022/01/05 09:32:09;;;;;;;15.80;10.93;;;14.00;96.60;;;;;;5153075;28;20134;-28
2022/01/05 09:34:57;;;;;;;13.43;8.00;;;14.00;96.50;;;;;;5148234;28;20049;-28
2022/01/05 09:37:54;;;;;;;13.53;8.03;;;14.00;96.30;;;;;;5091664;29;20139;-28
2022/01/05 09:43:15;;;;;;;16.33;9.97;;;14.10;96.10;;;;;;5105102;29;20055;-28
2022/01/05 09:45:54;;;;;;;14.40;7.97;;;14.10;96.00;;;;;;5085584;29;20052;-27
2022/01/05 09:48:38;;;;;;;11.07;6.00;;;14.00;95.70;;;;;;5099534;29;20082;-29
2022/01/05 09:51:10;;;;;;;10.17;6.33;;;14.00;95.70;;;;;;5085445;29;20538;-28
2022/01/05 09:53:41;;;;;;;11.60;6.83;;;14.00;95.70;;;;;;5097545;29;20052;-29
2022/01/05 09:56:19;;;;;;;20.43;12.80;;;14.00;95.70;;;;;;5107490;29;20502;-28
2022/01/05 09:58:51;;;;;;;23.37;15.10;;;14.00;95.50;;;;;;5107025;29;20063;-30
2022/01/05 10:01:24;;;;;;;16.20;10.25;;;14.00;95.50;;;;;;5075951;29;20462;-29
2022/01/05 10:03:58;;;;;;;12.77;7.87;;;14.00;95.60;;;;;;5076477;29;20625;-29
2022/01/05 10:06:31;;;;;;;15.70;9.17;;;14.00;95.60;;;;;;5076267;29;20477;-28
2022/01/05 10:09:27;;;;;;;13.98;7.75;;;14.00;95.60;;;;;;5091780;29;20521;-28
2022/01/05 10:12:11;;;;;;;15.63;7.27;;;14.00;95.70;;;;;;5093383;29;20061;-29
2022/01/05 10:14:44;;;;;;;19.47;10.60;;;14.00;95.60;;;;;;5090647;29;20054;-28
2022/01/05 10:17:21;;;;;;;20.48;11.48;;;14.00;95.60;;;;;;5091482;29;20127;-28
2022/01/05 10:19:59;;;;;;;27.80;20.03;;;14.00;95.60;;;;;;5092277;29;20147;-28
2022/01/05 10:22:38;;;;;;;17.77;12.77;;;14.00;95.70;;;;;;5091140;29;20086;-29
2022/01/05 10:25:15;;;;;;;18.83;12.57;;;14.00;95.50;;;;;;5090910;29;20514;-30
2022/01/05 10:28:00;;;;;;;15.00;10.47;;;14.00;95.60;;;;;;5106939;29;20071;-29
2022/01/05 10:30:39;;;;;;;12.67;8.73;;;13.90;95.70;;;;;;5106746;29;20043;-28
2022/01/05 10:33:10;;;;;;;18.57;11.90;;;13.90;95.60;;;;;;5104614;29;20517;-29
2022/01/05 10:35:55;;;;;;;20.00;12.37;;;13.90;95.70;;;;;;5104276;29;20083;-28
2022/01/05 10:38:50;;;;;;;20.50;13.90;;;13.90;95.80;;;;;;5089947;29;20047;-28
2022/01/05 10:41:22;;;;;;;15.33;8.57;;;13.80;95.90;;;;;;5107836;29;20088;-28
2022/01/05 10:44:16;;;;;;;17.42;9.75;;;13.80;95.80;;;;;;5110427;29;20063;-28
2022/01/05 10:46:55;;;;;;;15.17;9.03;;;13.70;95.80;;;;;;5126225;28;20051;-28
2022/01/05 10:49:31;;;;;;;14.87;8.07;;;13.80;95.80;;;;;;5110582;29;21069;-28
2022/01/05 10:52:27;;;;;;;17.97;12.90;;;13.70;95.80;;;;;;5111411;29;20416;-28
2022/01/05 10:55:13;;;;;;;20.90;12.90;;;13.70;95.80;;;;;;5094659;29;20054;-28
2022/01/05 10:58:04;;;;;;;20.50;13.37;;;13.70;95.70;;;;;;5126155;28;20556;-30
2022/01/05 11:00:39;;;;;;;14.70;9.83;;;13.70;95.80;;;;;;5110790;29;20414;-30
2022/01/05 11:03:26;;;;;;;17.20;11.40;;;13.60;95.90;;;;;;5126030;28;20047;-30
2022/01/05 11:06:05;;;;;;;18.00;11.53;;;13.60;95.80;;;;;;5109959;29;20054;-29
2022/01/05 11:09:12;;;;;;;16.67;10.47;;;13.60;95.80;;;;;;5110753;29;20095;-28
2022/01/05 11:11:44;;;;;;;19.00;11.77;;;13.60;95.70;;;;;;5106581;28;20137;-28
2022/01/05 11:14:18;;;;;;;14.60;9.20;;;13.60;95.90;;;;;;5165576;28;20161;-29
2022/01/05 11:16:51;;;;;;;16.40;9.53;;;13.70;96.00;;;;;;5165967;28;20057;-30
2022/01/05 11:19:31;;;;;;;13.80;8.70;;;13.60;95.90;;;;;;5133827;28;20097;-28
2022/01/05 11:22:07;;;;;;;13.30;7.80;;;13.60;95.80;;;;;;5150677;28;20066;-28
2022/01/05 11:24:41;;;;;;;14.07;9.00;;;13.60;95.80;;;;;;5149817;28;20070;-28
2022/01/05 11:27:28;;;;;;;13.00;7.93;;;13.60;95.90;;;;;;5149522;28;20058;-28
2022/01/05 11:30:00;;;;;;;11.33;7.30;;;13.60;96.00;;;;;;5157917;28;20050;-29
2022/01/05 11:32:34;;;;;;;10.82;6.40;;;13.60;96.00;;;;;;5163434;28;20051;-30
2022/01/05 11:35:07;;;;;;;10.83;6.47;;;13.60;96.00;;;;;;5102878;29;20075;-29
2022/01/05 11:37:38;;;;;;;15.00;8.07;;;13.60;96.00;;;;;;5102945;29;20138;-30
2022/01/05 11:40:09;;;;;;;12.07;7.63;;;13.60;96.10;;;;;;5103303;29;20143;-30
2022/01/05 11:42:41;;;;;;;13.33;7.60;;;13.50;96.00;;;;;;5087198;29;20438;-28
2022/01/05 11:45:47;;;;;;;15.83;8.00;;;13.60;96.00;;;;;;5087516;29;20059;-29
2022/01/05 11:48:33;;;;;;;12.03;6.77;;;13.60;96.10;;;;;;5108069;28;20082;-29
2022/01/05 11:51:04;;;;;;;14.10;7.43;;;13.50;95.70;;;;;;5107605;29;20062;-28
2022/01/05 11:53:41;;;;;;;14.10;9.77;;;13.60;95.70;;;;;;5122781;28;20141;-29
2022/01/05 11:56:16;;;;;;;14.40;8.53;;;13.60;95.70;;;;;;5123050;28;20532;-29
2022/01/05 11:58:50;;;;;;;11.03;6.60;;;13.70;95.70;;;;;;5106893;28;20055;-29
2022/01/05 12:01:23;;;;;;;13.30;6.90;;;13.70;95.80;;;;;;5106772;29;20047;-29
2022/01/05 12:04:01;;;;;;;10.73;6.13;;;13.70;95.80;;;;;;5106615;28;20058;-27
2022/01/05 12:06:34;;;;;;;12.83;6.60;;;13.70;95.40;;;;;;5153380;28;20062;-28
2022/01/05 12:09:20;;;;;;;10.65;6.05;;;13.70;95.50;;;;;;5165039;28;20058;-29
2022/01/05 12:11:51;;;;;;;12.53;6.50;;;13.80;95.50;;;;;;5164304;28;20054;-28
2022/01/05 12:14:22;;;;;;;22.57;13.17;;;13.80;95.50;;;;;;5165632;28;20050;-28
2022/01/05 12:16:58;;;;;;;16.73;10.00;;;13.80;95.60;;;;;;5165916;28;20440;-29
2022/01/05 12:19:33;;;;;;;12.23;7.33;;;13.70;95.30;;;;;;5166926;28;20051;-28
2022/01/05 12:22:13;;;;;;;25.13;16.53;;;13.80;95.10;;;;;;5166085;28;20484;-27
2022/01/05 12:25:07;;;;;;;17.13;10.47;;;13.70;95.00;;;;;;5166087;28;20133;-28
2022/01/05 12:27:38;;;;;;;21.95;13.73;;;13.70;95.10;;;;;;5166842;28;20057;-29
2022/01/05 12:30:10;;;;;;;19.40;12.53;;;13.80;95.10;;;;;;5167342;28;20396;-29
2022/01/05 12:32:49;;;;;;;26.10;17.67;;;14.00;95.80;;;;;;5166958;28;20108;-30
2022/01/05 12:35:21;;;;;;;18.10;12.10;;;14.00;95.20;;;;;;5165713;28;20038;-28
2022/01/05 12:37:58;;;;;;;17.73;9.87;;;13.90;94.80;;;;;;5167043;28;20049;-29
2022/01/05 12:40:36;;;;;;;11.70;8.23;;;13.80;94.70;;;;;;5149849;28;20073;-30
2022/01/05 12:43:10;;;;;;;11.07;6.93;;;13.80;94.70;;;;;;5165541;28;20166;-30
2022/01/05 12:45:53;;;;;;;11.53;6.63;;;13.80;94.90;;;;;;5166864;28;20483;-28
2022/01/05 12:48:30;;;;;;;12.85;7.35;;;13.70;94.80;;;;;;5167089;28;20415;-29
2022/01/05 12:51:23;;;;;;;12.33;6.97;;;13.70;94.80;;;;;;5166876;28;20046;-28
2022/01/05 12:54:02;;;;;;;14.20;8.83;;;13.70;94.70;;;;;;5166877;28;20480;-28
2022/01/05 12:56:42;;;;;;;14.20;7.57;;;13.70;94.80;;;;;;5166886;28;20392;-29
2022/01/05 12:59:20;;;;;;;15.70;7.80;;;13.70;94.90;;;;;;5166214;28;20057;-28
2022/01/05 13:01:52;;;;;;;11.93;7.50;;;13.60;94.90;;;;;;5165864;28;20035;-29
2022/01/05 13:04:24;;;;;;;20.13;14.20;;;13.60;94.70;;;;;;5165436;28;20046;-29
2022/01/05 13:06:58;;;;;;;30.20;18.45;;;13.60;94.80;;;;;;5165775;28;20125;-30
2022/01/05 13:09:30;;;;;;;38.67;18.77;;;13.60;94.80;;;;;;5165539;28;20081;-29
2022/01/05 13:12:06;;;;;;;38.10;15.50;;;13.60;94.90;;;;;;5180453;28;20499;-29
2022/01/05 13:14:41;;;;;;;52.67;20.90;;;13.60;94.90;;;;;;5169571;28;20073;-30